Battle Point — NMBY — position and weather

sailwx.info

Track history (hours):
 
Tides and Currents Weather Stations Pressure Air Temp Water Temp Dewpoint Dewpoint Depression Visibility Wind Speed Wind Dir Waves Ship Positions

Battle Point

Last reported at 2017-Jun-29 00:55 UTC. Time now 2017-Aug-17 21:21 UTC.
Position N 47°46' W 122°43'.
Warning: this ship's position is 49 days out of date.

Length 57 m; draft 3.2 m.

MMSI: 369970254.

Date/timePositionNaut miles runAvg speedWind from/ knotsBaromVisibWave heightAir tempDewpointWater temp
2017-Jun-29 00:55N 47°46' W 122°43'511.2
2017-Jun-29 00:28N 47°50' W 122°39'4 8.7
2017-Jun-28 23:59N 47°54' W 122°37'1310.5
2017-Jun-28 22:45N 48°07' W 122°41'411.0
2017-Jun-28 22:26N 48°09' W 122°45'510.2
2017-Jun-28 21:59N 48°13' W 122°49'611.9
2017-Jun-28 21:30N 48°19' W 122°47'613.1
2017-Jun-28 21:00N 48°25' W 122°45'713.0
2017-Jun-28 20:30N 48°31' W 122°45'714.0
2017-Jun-28 20:00N 48°38' W 122°44'612.4
2017-Jun-28 19:29N 48°44' W 122°47'711.9
2017-Jun-28 18:54N 48°48' W 122°56'511.7
2017-Jun-28 18:30N 48°51' W 123°02'611.7
2017-Jun-28 18:00N 48°54' W 123°09'612.2
2017-Jun-28 17:29N 48°58' W 123°17'611.7
2017-Jun-28 17:00N 49°01' W 123°23'811.1
2017-Jun-28 16:18N 49°07' W 123°32'410.9
2017-Jun-28 15:57N 49°09' W 123°37'  
Track history (hours):
 
Tides and Currents Weather Stations Pressure Air Temp Water Temp Dewpoint Dewpoint Depression Visibility Wind Speed Wind Dir Waves Ship Positions

Battle Point

Last reported at 2017-Jun-29 00:55 UTC. Time now 2017-Aug-17 21:21 UTC.
Position N 47°46' W 122°43'.
Warning: this ship's position is 49 days out of date.

Length 57 m; draft 3.2 m.

MMSI: 369970254.

Date/timePositionNaut miles runAvg speedWind from/ knotsBaromVisibWave heightAir tempDewpointWater temp
2017-Jun-29 00:55N 47°46' W 122°43'511.2
2017-Jun-29 00:28N 47°50' W 122°39'4 8.7
2017-Jun-28 23:59N 47°54' W 122°37'1310.5
2017-Jun-28 22:45N 48°07' W 122°41'411.0
2017-Jun-28 22:26N 48°09' W 122°45'510.2
2017-Jun-28 21:59N 48°13' W 122°49'611.9
2017-Jun-28 21:30N 48°19' W 122°47'613.1
2017-Jun-28 21:00N 48°25' W 122°45'713.0
2017-Jun-28 20:30N 48°31' W 122°45'714.0
2017-Jun-28 20:00N 48°38' W 122°44'612.4
2017-Jun-28 19:29N 48°44' W 122°47'711.9
2017-Jun-28 18:54N 48°48' W 122°56'511.7
2017-Jun-28 18:30N 48°51' W 123°02'611.7
2017-Jun-28 18:00N 48°54' W 123°09'612.2
2017-Jun-28 17:29N 48°58' W 123°17'611.7
2017-Jun-28 17:00N 49°01' W 123°23'811.1
2017-Jun-28 16:18N 49°07' W 123°32'410.9
2017-Jun-28 15:57N 49°09' W 123°37'  

Dump ship's entire track history